createdAt,value
2018-02-25T00:01:08.576Z,26.10
2018-02-25T00:03:36.156Z,25.80
2018-02-25T00:06:03.759Z,25.70
2018-02-25T00:08:31.370Z,25.40
2018-02-25T00:10:59.823Z,25.00
2018-02-25T00:13:28.181Z,24.90
2018-02-25T00:15:55.727Z,24.90
2018-02-25T00:18:23.383Z,25.00
2018-02-25T00:20:50.992Z,24.60
2018-02-25T00:23:18.543Z,24.80
2018-02-25T00:25:46.158Z,24.60
2018-02-25T00:28:13.714Z,24.40
2018-02-25T00:30:41.311Z,24.40
2018-02-25T00:33:09.697Z,24.30
2018-02-25T00:35:38.013Z,24.10
2018-02-25T00:38:05.585Z,24.10
2018-02-25T00:40:33.139Z,24.10
2018-02-25T00:43:00.736Z,23.90
2018-02-25T00:45:29.050Z,24.00
2018-02-25T00:47:56.603Z,24.00
2018-02-25T00:50:24.205Z,24.10
2018-02-25T00:52:51.777Z,24.30
2018-02-25T00:55:19.353Z,24.60
2018-02-25T00:57:46.909Z,25.20
2018-02-25T01:00:14.538Z,25.50
2018-02-25T01:02:42.119Z,26.80
2018-02-25T01:05:10.453Z,28.20
2018-02-25T01:07:38.039Z,28.20
2018-02-25T01:10:05.588Z,27.10
2018-02-25T01:12:33.139Z,27.30
2018-02-25T01:15:00.835Z,26.80
2018-02-25T01:17:28.361Z,27.30
2018-02-25T01:19:55.933Z,28.10
2018-02-25T01:22:23.539Z,28.10
2018-02-25T01:24:51.859Z,28.20
2018-02-25T01:27:19.435Z,28.10
2018-02-25T01:29:47.021Z,28.10
2018-02-25T01:32:14.562Z,28.10
2018-02-25T01:34:42.149Z,28.10
2018-02-25T01:37:10.471Z,28.20
2018-02-25T01:39:38.049Z,28.20
2018-02-25T01:42:05.685Z,28.40
2018-02-25T01:44:33.257Z,28.50
2018-02-25T01:47:00.839Z,28.10
2018-02-25T01:49:28.407Z,28.10
2018-02-25T01:51:55.977Z,28.10
2018-02-25T01:54:23.624Z,28.10
2018-02-25T01:56:51.173Z,28.10
2018-02-25T01:59:19.479Z,28.10
2018-02-25T02:01:47.811Z,28.10
2018-02-25T02:04:15.478Z,28.10
2018-02-25T02:06:43.079Z,28.10
2018-02-25T02:09:10.609Z,28.10
2018-02-25T02:11:38.213Z,28.10
2018-02-25T02:14:06.569Z,26.80
2018-02-25T02:16:34.167Z,27.00
2018-02-25T02:19:01.837Z,28.10
2018-02-25T02:21:29.383Z,28.00
2018-02-25T02:23:56.974Z,28.00
2018-02-25T02:26:24.577Z,28.00
2018-02-25T02:28:52.379Z,26.60
2018-02-25T02:31:19.938Z,26.10
2018-02-25T02:33:47.499Z,27.00
2018-02-25T02:36:15.102Z,27.60
2018-02-25T02:38:42.739Z,28.10
2018-02-25T02:41:10.508Z,28.10
2018-02-25T02:43:38.080Z,27.70
2018-02-25T02:46:05.675Z,27.30
2018-02-25T02:48:34.006Z,27.10
2018-02-25T02:51:01.598Z,27.10
2018-02-25T02:53:29.183Z,26.20
2018-02-25T02:55:56.751Z,26.30
2018-02-25T02:58:24.326Z,27.30
2018-02-25T03:00:51.898Z,26.60
2018-02-25T03:03:19.456Z,26.90
2018-02-25T03:05:47.078Z,27.60
2018-02-25T03:08:15.429Z,28.00
2018-02-25T03:10:42.985Z,28.00
2018-02-25T03:13:10.572Z,28.50
2018-02-25T03:15:38.927Z,27.00
2018-02-25T03:18:06.461Z,26.90
2018-02-25T03:20:34.026Z,27.50
2018-02-25T03:23:01.607Z,26.80
2018-02-25T03:25:29.162Z,26.90
2018-02-25T03:27:56.741Z,28.00
2018-02-25T03:30:25.084Z,28.00
2018-02-25T03:32:52.628Z,28.00
2018-02-25T03:35:20.220Z,27.00
2018-02-25T03:37:47.784Z,27.30
2018-02-25T03:40:15.316Z,28.00
2018-02-25T03:42:43.004Z,25.90
2018-02-25T03:45:10.572Z,26.30
2018-02-25T03:47:38.150Z,27.10
2018-02-25T03:50:06.571Z,27.00
2018-02-25T03:52:34.148Z,27.50
2018-02-25T03:55:01.754Z,26.70
2018-02-25T03:57:29.520Z,26.30
2018-02-25T03:59:57.084Z,27.20
2018-02-25T04:02:24.788Z,26.40
2018-02-25T04:04:52.390Z,26.70
2018-02-25T04:07:20.727Z,26.50
2018-02-25T04:09:48.287Z,26.50
2018-02-25T04:12:15.944Z,28.00
2018-02-25T04:14:43.486Z,27.80
2018-02-25T04:17:11.024Z,27.50
2018-02-25T04:19:38.616Z,28.00
2018-02-25T04:22:06.294Z,26.20
2018-02-25T04:24:33.906Z,27.00
2018-02-25T04:27:01.503Z,26.70
2018-02-25T04:29:29.058Z,26.80
2018-02-25T04:31:56.647Z,26.60
2018-02-25T04:34:24.195Z,28.00
2018-02-25T04:36:52.566Z,27.30
2018-02-25T04:39:20.117Z,27.50
2018-02-25T04:41:47.734Z,26.80
2018-02-25T04:44:16.103Z,26.40
2018-02-25T04:46:44.481Z,25.60
2018-02-25T04:49:12.816Z,26.50
2018-02-25T04:51:40.419Z,26.50
2018-02-25T04:54:08.753Z,26.00
2018-02-25T04:56:36.338Z,26.10
2018-02-25T04:59:03.920Z,26.80
2018-02-25T05:01:32.567Z,26.40
2018-02-25T05:04:00.123Z,26.50
2018-02-25T05:06:27.846Z,26.40
2018-02-25T05:08:55.404Z,25.90
2018-02-25T05:11:22.951Z,26.50
2018-02-25T05:13:51.291Z,26.50
2018-02-25T05:16:18.833Z,26.40
2018-02-25T05:18:46.393Z,26.00
2018-02-25T05:21:13.987Z,25.30
2018-02-25T05:23:41.536Z,26.10
2018-02-25T05:26:09.113Z,26.30
2018-02-25T05:28:37.435Z,25.90
2018-02-25T05:31:05.031Z,26.00
2018-02-25T05:33:32.570Z,27.90
2018-02-25T05:36:00.174Z,26.60
2018-02-25T05:38:28.503Z,26.80
2018-02-25T05:40:56.059Z,26.90
2018-02-25T05:43:23.960Z,25.70
2018-02-25T05:45:51.523Z,25.70
2018-02-25T05:48:19.083Z,25.40
2018-02-25T05:50:46.675Z,25.40
2018-02-25T05:53:14.262Z,25.20
2018-02-25T05:55:41.811Z,25.80
2018-02-25T05:58:09.383Z,25.70
2018-02-25T06:00:36.938Z,26.30
2018-02-25T06:03:04.558Z,25.50
2018-02-25T06:05:32.975Z,25.50
2018-02-25T06:08:00.526Z,25.60
2018-02-25T06:10:28.118Z,26.00
2018-02-25T06:12:55.720Z,25.80
2018-02-25T06:15:24.021Z,26.70
2018-02-25T06:17:51.621Z,26.60
2018-02-25T06:20:19.173Z,26.60
2018-02-25T06:22:46.913Z,25.20
2018-02-25T06:25:14.499Z,25.70
2018-02-25T06:27:42.117Z,26.10
2018-02-25T06:30:10.477Z,26.60
2018-02-25T06:32:38.897Z,26.40
2018-02-25T06:35:06.501Z,26.50
2018-02-25T06:37:34.071Z,26.70
2018-02-25T06:40:02.547Z,26.50
2018-02-25T06:42:31.168Z,26.00
2018-02-25T06:44:58.734Z,26.10
2018-02-25T06:47:26.458Z,26.00
2018-02-25T06:49:54.781Z,26.10
2018-02-25T06:52:22.475Z,26.20
2018-02-25T06:54:50.061Z,26.90
2018-02-25T06:57:18.438Z,25.60
2018-02-25T06:59:46.792Z,26.40
2018-02-25T07:02:14.376Z,26.40
2018-02-25T07:04:42.701Z,26.50
2018-02-25T07:07:10.312Z,26.50
2018-02-25T07:09:38.634Z,27.00
2018-02-25T07:12:06.195Z,26.90
2018-02-25T07:14:33.820Z,27.80
2018-02-25T07:17:02.221Z,26.80
2018-02-25T07:19:29.778Z,26.70
2018-02-25T07:21:57.357Z,27.80
2018-02-25T07:24:25.001Z,27.80
2018-02-25T07:26:52.705Z,27.80
2018-02-25T07:29:20.270Z,26.00
2018-02-25T07:31:47.827Z,26.20
2018-02-25T07:34:15.473Z,27.80
2018-02-25T07:36:43.069Z,24.90
2018-02-25T07:39:11.710Z,25.60
2018-02-25T07:41:39.260Z,25.70
2018-02-25T07:44:06.938Z,25.80
2018-02-25T07:46:34.516Z,27.00
2018-02-25T07:49:02.070Z,29.50
2018-02-25T07:51:30.421Z,30.00
2018-02-25T07:53:57.989Z,30.10
2018-02-25T07:56:25.580Z,32.80
2018-02-25T07:58:53.132Z,33.40
2018-02-25T08:01:20.745Z,33.30
2018-02-25T08:03:48.650Z,29.50
2018-02-25T08:06:16.274Z,29.40
2018-02-25T08:08:43.934Z,31.40
2018-02-25T08:11:11.528Z,32.20
2018-02-25T08:13:39.249Z,28.10
2018-02-25T08:16:06.840Z,24.40
2018-02-25T08:18:34.405Z,28.10
2018-02-25T08:21:02.155Z,26.30
2018-02-25T08:23:29.793Z,26.00
2018-02-25T08:25:57.353Z,23.30
2018-02-25T08:28:24.942Z,24.30
2018-02-25T08:30:53.062Z,23.40
2018-02-25T08:33:21.397Z,27.50
2018-02-25T08:35:48.975Z,27.50
2018-02-25T08:38:16.594Z,28.10
2018-02-25T08:40:44.173Z,24.50
2018-02-25T08:43:11.745Z,26.40
2018-02-25T08:45:39.297Z,24.00
2018-02-25T08:48:06.948Z,23.40
2018-02-25T08:50:34.502Z,23.40
2018-02-25T08:53:02.082Z,23.10
2018-02-25T08:55:29.655Z,22.70
2018-02-25T08:57:58.283Z,21.80
2018-02-25T09:00:25.846Z,22.10
2018-02-25T09:02:53.517Z,21.50
2018-02-25T09:05:21.120Z,21.40
2018-02-25T09:07:48.704Z,21.50
2018-02-25T09:10:17.043Z,21.50
2018-02-25T09:12:44.595Z,21.50
2018-02-25T09:15:12.291Z,21.40
2018-02-25T09:17:39.805Z,21.60
2018-02-25T09:20:07.385Z,21.60
2018-02-25T09:22:34.984Z,21.70
2018-02-25T09:25:03.315Z,21.50
2018-02-25T09:27:31.072Z,21.60
2018-02-25T09:29:58.668Z,21.60
2018-02-25T09:32:26.286Z,21.60
2018-02-25T09:34:53.938Z,21.50
2018-02-25T09:37:21.522Z,21.60
2018-02-25T09:39:49.134Z,21.50
2018-02-25T09:42:17.486Z,21.70
2018-02-25T09:44:45.088Z,21.70
2018-02-25T09:47:12.675Z,21.70
2018-02-25T09:49:40.268Z,21.70
2018-02-25T09:52:07.879Z,21.60
2018-02-25T09:54:35.444Z,21.70
2018-02-25T09:57:03.030Z,21.30
2018-02-25T09:59:30.657Z,21.50
2018-02-25T10:01:58.386Z,21.40
2018-02-25T10:04:25.954Z,21.60
2018-02-25T10:06:54.469Z,21.30
2018-02-25T10:09:22.042Z,21.40
2018-02-25T10:11:49.800Z,21.80
2018-02-25T10:14:17.440Z,21.90
2018-02-25T10:16:44.967Z,23.60
2018-02-25T10:19:12.502Z,23.70
2018-02-25T10:21:40.106Z,26.20
2018-02-25T10:24:08.478Z,24.60
2018-02-25T10:26:36.790Z,23.70
2018-02-25T10:29:04.548Z,23.70
2018-02-25T10:31:32.998Z,24.40
2018-02-25T10:34:01.362Z,23.70
2018-02-25T10:36:28.962Z,23.70
2018-02-25T10:38:56.577Z,23.70
2018-02-25T10:41:25.023Z,23.70
2018-02-25T10:43:52.632Z,23.70
2018-02-25T10:46:21.049Z,23.70
2018-02-25T10:48:48.599Z,23.70
2018-02-25T10:51:16.162Z,23.70
2018-02-25T10:53:43.766Z,23.60
2018-02-25T10:56:11.360Z,24.50
2018-02-25T10:58:39.752Z,24.80
2018-02-25T11:01:08.028Z,24.30
2018-02-25T11:03:35.651Z,23.70
2018-02-25T11:06:03.217Z,23.60
2018-02-25T11:08:30.820Z,23.60
2018-02-25T11:10:58.426Z,23.60
2018-02-25T11:13:26.013Z,23.60
2018-02-25T11:15:54.360Z,24.10
2018-02-25T11:18:21.945Z,23.60
2018-02-25T11:20:50.063Z,23.60
2018-02-25T11:23:17.660Z,23.60
2018-02-25T11:25:45.303Z,23.60
2018-02-25T11:28:12.884Z,23.60
2018-02-25T11:30:40.448Z,23.50
2018-02-25T11:33:08.015Z,23.60
2018-02-25T11:35:35.818Z,23.60
2018-02-25T11:38:03.406Z,23.50
2018-02-25T11:40:30.994Z,23.50
2018-02-25T11:42:58.574Z,23.50
2018-02-25T11:45:27.005Z,23.50
2018-02-25T11:47:54.576Z,23.50
2018-02-25T11:50:22.199Z,23.50
2018-02-25T11:52:49.747Z,23.50
2018-02-25T11:55:17.472Z,23.50
2018-02-25T11:57:45.032Z,23.50
2018-02-25T12:00:12.709Z,23.50
2018-02-25T12:02:41.066Z,23.50
2018-02-25T12:05:08.612Z,23.50
2018-02-25T12:07:36.223Z,23.50
2018-02-25T12:10:03.798Z,23.50
2018-02-25T12:12:31.391Z,23.50
2018-02-25T12:14:59.685Z,23.40
2018-02-25T12:17:27.414Z,23.50
2018-02-25T12:19:55.169Z,24.00
2018-02-25T12:22:22.787Z,23.50
2018-02-25T12:24:51.123Z,25.50
2018-02-25T12:27:18.708Z,25.50
2018-02-25T12:29:46.293Z,25.30
2018-02-25T12:32:14.639Z,25.40
2018-02-25T12:34:42.988Z,24.80
2018-02-25T12:37:10.567Z,25.30
2018-02-25T12:39:38.259Z,24.90
2018-02-25T12:42:05.878Z,24.90
2018-02-25T12:44:33.507Z,24.50
2018-02-25T12:47:01.228Z,24.70
2018-02-25T12:49:28.862Z,24.30
2018-02-25T12:51:56.675Z,24.60
2018-02-25T12:54:25.126Z,30.00
2018-02-25T12:56:52.939Z,30.20
2018-02-25T12:59:20.511Z,33.70
2018-02-25T13:01:48.087Z,31.40
2018-02-25T13:04:15.855Z,28.90
2018-02-25T13:06:43.488Z,28.40
2018-02-25T13:09:11.375Z,29.00
2018-02-25T13:11:39.831Z,30.20
2018-02-25T13:14:08.195Z,28.20
2018-02-25T13:16:36.563Z,28.20
2018-02-25T13:19:04.197Z,28.20
2018-02-25T13:21:31.765Z,28.20
2018-02-25T13:23:59.589Z,28.20
2018-02-25T13:26:27.999Z,28.20
2018-02-25T13:28:55.755Z,28.20
2018-02-25T13:31:23.461Z,28.20
2018-02-25T13:33:51.065Z,28.20
2018-02-25T13:36:18.684Z,28.20
2018-02-25T13:38:46.251Z,28.20
2018-02-25T13:41:14.603Z,28.20
2018-02-25T13:43:42.165Z,28.10
2018-02-25T13:46:09.737Z,28.10
2018-02-25T13:48:37.400Z,27.90
2018-02-25T13:51:04.984Z,27.00
2018-02-25T13:53:32.573Z,27.80
2018-02-25T13:56:00.255Z,27.10
2018-02-25T13:58:27.799Z,26.40
2018-02-25T14:00:55.415Z,26.50
2018-02-25T14:03:23.751Z,26.10
2018-02-25T14:05:51.325Z,26.10
2018-02-25T14:08:18.992Z,26.20
2018-02-25T14:10:46.616Z,25.80
2018-02-25T14:13:14.203Z,25.80
2018-02-25T14:15:41.765Z,25.50
2018-02-25T14:18:09.492Z,25.90
2018-02-25T14:20:37.050Z,25.30
2018-02-25T14:23:04.626Z,25.70
2018-02-25T14:25:32.297Z,24.90
2018-02-25T14:27:59.887Z,24.80
2018-02-25T14:30:28.266Z,25.30
2018-02-25T14:32:56.611Z,24.80
2018-02-25T14:35:24.218Z,24.80
2018-02-25T14:37:52.620Z,24.40
2018-02-25T14:40:20.169Z,24.40
2018-02-25T14:42:47.758Z,25.20
2018-02-25T14:45:15.319Z,25.00
2018-02-25T14:47:42.906Z,24.40
2018-02-25T14:50:10.461Z,23.60
2018-02-25T14:52:38.203Z,23.50
2018-02-25T14:55:05.770Z,24.90
2018-02-25T14:57:33.357Z,23.60
2018-02-25T15:00:00.938Z,23.50
2018-02-25T15:02:28.497Z,23.50
2018-02-25T15:04:56.860Z,23.50
2018-02-25T15:07:24.456Z,23.50
2018-02-25T15:09:52.093Z,23.50
2018-02-25T15:12:20.420Z,23.50
2018-02-25T15:14:48.028Z,23.50
2018-02-25T15:17:16.368Z,23.50
2018-02-25T15:19:43.916Z,23.50
2018-02-25T15:22:11.544Z,23.50
2018-02-25T15:24:39.132Z,23.50
2018-02-25T15:27:06.702Z,23.50
2018-02-25T15:29:34.319Z,23.50
2018-02-25T15:32:02.644Z,23.50
2018-02-25T15:34:30.226Z,23.50
2018-02-25T15:36:58.558Z,24.20
2018-02-25T15:39:26.271Z,24.20
2018-02-25T15:41:53.856Z,23.60
2018-02-25T15:44:21.460Z,23.50
2018-02-25T15:46:49.008Z,23.60
2018-02-25T15:49:16.930Z,23.60
2018-02-25T15:51:45.288Z,23.10
2018-02-25T15:54:12.861Z,23.10
2018-02-25T15:56:41.335Z,23.10
2018-02-25T15:59:09.047Z,23.10
2018-02-25T16:01:36.624Z,23.70
2018-02-25T16:04:04.228Z,23.50
2018-02-25T16:06:32.598Z,23.50
2018-02-25T16:09:00.164Z,23.50
2018-02-25T16:11:28.554Z,24.40
2018-02-25T16:13:56.106Z,24.20
2018-02-25T16:16:24.464Z,23.50
2018-02-25T16:18:52.849Z,23.50
2018-02-25T16:21:20.519Z,23.50
2018-02-25T16:23:48.881Z,23.40
2018-02-25T16:26:18.114Z,23.40
2018-02-25T16:28:45.689Z,23.40
2018-02-25T16:31:13.458Z,24.00
2018-02-25T16:33:41.033Z,23.40
2018-02-25T16:36:08.607Z,24.60
2018-02-25T16:38:36.216Z,23.80
2018-02-25T16:41:04.567Z,23.40
2018-02-25T16:43:32.416Z,23.40
2018-02-25T16:46:00.877Z,23.40
2018-02-25T16:48:28.526Z,23.40
2018-02-25T16:50:56.217Z,23.40
2018-02-25T16:53:24.726Z,23.30
2018-02-25T16:55:52.283Z,23.40
2018-02-25T16:58:20.108Z,23.40
2018-02-25T17:00:47.701Z,23.30
2018-02-25T17:03:16.099Z,23.30
2018-02-25T17:05:44.475Z,23.40
2018-02-25T17:08:12.942Z,23.40
2018-02-25T17:10:40.555Z,23.40
2018-02-25T17:13:08.171Z,23.90
2018-02-25T17:15:35.779Z,23.70
2018-02-25T17:18:03.372Z,23.40
2018-02-25T17:20:31.010Z,23.30
2018-02-25T17:22:58.557Z,24.90
2018-02-25T17:25:26.154Z,23.30
2018-02-25T17:27:53.769Z,24.50
2018-02-25T17:30:21.375Z,24.40
2018-02-25T17:32:48.979Z,25.10
2018-02-25T17:35:16.606Z,25.10
2018-02-25T17:37:44.184Z,25.00
2018-02-25T17:40:12.563Z,24.60
2018-02-25T17:42:40.906Z,24.60
2018-02-25T17:45:08.529Z,24.60
2018-02-25T17:47:36.171Z,25.70
2018-02-25T17:50:04.566Z,25.20
2018-02-25T17:52:32.144Z,25.30
2018-02-25T17:54:59.783Z,25.60
2018-02-25T17:57:27.379Z,26.80
2018-02-25T17:59:54.940Z,24.60
2018-02-25T18:02:22.659Z,26.60
2018-02-25T18:04:50.251Z,25.20
2018-02-25T18:07:17.963Z,25.80
2018-02-25T18:09:46.325Z,22.10
2018-02-25T18:12:13.951Z,22.10
2018-02-25T18:14:41.543Z,22.80
2018-02-25T18:17:09.950Z,24.30
2018-02-25T18:19:38.357Z,23.50
2018-02-25T18:22:06.705Z,23.00
2018-02-25T18:24:35.299Z,22.80
2018-02-25T18:27:03.128Z,22.90
2018-02-25T18:29:32.286Z,22.70
2018-02-25T18:31:59.929Z,22.70
2018-02-25T18:34:27.537Z,23.00
2018-02-25T18:36:55.233Z,23.10
2018-02-25T18:39:22.894Z,22.90
2018-02-25T18:41:51.376Z,23.10
2018-02-25T18:44:19.729Z,23.50
2018-02-25T18:46:47.349Z,23.00
2018-02-25T18:49:15.085Z,22.60
2018-02-25T18:51:43.475Z,22.70
2018-02-25T18:54:11.107Z,22.80
2018-02-25T18:56:39.519Z,23.40
2018-02-25T18:59:07.135Z,23.40
2018-02-25T19:01:34.958Z,23.40
2018-02-25T19:04:02.616Z,23.40
2018-02-25T19:06:30.280Z,23.40
2018-02-25T19:08:57.889Z,22.90
2018-02-25T19:11:25.550Z,23.20
2018-02-25T19:13:53.194Z,22.80
2018-02-25T19:16:20.817Z,23.20
2018-02-25T19:18:48.729Z,22.40
2018-02-25T19:21:16.528Z,22.30
2018-02-25T19:23:45.139Z,22.40
2018-02-25T19:26:12.746Z,22.40
2018-02-25T19:28:40.402Z,22.10
2018-02-25T19:31:08.822Z,21.70
2018-02-25T19:33:36.486Z,21.80
2018-02-25T19:36:09.840Z,22.20
2018-02-25T19:38:43.808Z,22.20
2018-02-25T19:41:17.058Z,21.90
2018-02-25T19:43:45.422Z,22.30
2018-02-25T19:46:13.125Z,22.00
2018-02-25T19:48:41.406Z,22.40
2018-02-25T19:51:10.105Z,22.50
2018-02-25T19:53:37.709Z,22.70
2018-02-25T19:56:05.372Z,22.50
2018-02-25T19:58:33.753Z,22.60
2018-02-25T20:01:01.513Z,22.60
2018-02-25T20:03:29.106Z,23.20
2018-02-25T20:05:57.567Z,22.60
2018-02-25T20:08:25.991Z,22.60
2018-02-25T20:10:53.772Z,22.60
2018-02-25T20:13:21.492Z,22.60
2018-02-25T20:15:49.668Z,22.80
2018-02-25T20:18:17.292Z,22.60
2018-02-25T20:20:46.545Z,22.60
2018-02-25T20:23:14.126Z,22.50
2018-02-25T20:25:41.744Z,22.40
2018-02-25T20:28:09.390Z,22.30
2018-02-25T20:30:37.401Z,22.40
2018-02-25T20:33:04.991Z,22.20
2018-02-25T20:35:32.656Z,22.40
2018-02-25T20:38:00.438Z,22.30
2018-02-25T20:40:28.074Z,22.40
2018-02-25T20:42:55.805Z,22.30
2018-02-25T20:45:23.436Z,22.40
2018-02-25T20:47:51.848Z,22.40
2018-02-25T20:50:19.538Z,22.40
2018-02-25T20:52:47.185Z,22.30
2018-02-25T20:55:14.781Z,22.10
2018-02-25T20:57:43.190Z,22.20
2018-02-25T21:00:11.598Z,22.20
2018-02-25T21:02:39.243Z,22.20
2018-02-25T21:05:07.154Z,22.20
2018-02-25T21:07:34.775Z,22.20
2018-02-25T21:10:02.423Z,22.30
2018-02-25T21:12:30.807Z,22.20
2018-02-25T21:14:59.230Z,22.20
2018-02-25T21:17:26.814Z,22.20
2018-02-25T21:19:54.473Z,22.50
2018-02-25T21:22:22.166Z,22.50
2018-02-25T21:24:50.509Z,22.50
2018-02-25T21:27:18.922Z,22.50
2018-02-25T21:29:47.339Z,22.60
2018-02-25T21:32:14.905Z,22.70
2018-02-25T21:34:42.482Z,22.50
2018-02-25T21:37:10.043Z,22.60
2018-02-25T21:39:37.665Z,22.50
2018-02-25T21:42:05.229Z,22.30
2018-02-25T21:44:32.859Z,22.60
2018-02-25T21:47:01.274Z,22.40
2018-02-25T21:49:28.856Z,22.50
2018-02-25T21:51:56.484Z,21.50
2018-02-25T21:54:29.654Z,17.10
2018-02-25T21:57:03.576Z,13.80
2018-02-25T21:59:36.790Z,13.80
2018-02-25T22:02:10.013Z,13.00
2018-02-25T22:04:38.331Z,13.00
2018-02-25T22:07:06.681Z,13.40
2018-02-25T22:09:34.247Z,13.40
2018-02-25T22:12:02.579Z,17.70
2018-02-25T22:14:30.230Z,17.80
2018-02-25T22:16:57.823Z,19.80
2018-02-25T22:19:25.559Z,20.20
2018-02-25T22:21:53.105Z,20.40
2018-02-25T22:24:20.760Z,21.10
2018-02-25T22:26:48.573Z,20.70
2018-02-25T22:29:16.928Z,19.80
2018-02-25T22:31:44.521Z,19.80
2018-02-25T22:34:12.085Z,19.70
2018-02-25T22:36:40.001Z,19.90
2018-02-25T22:39:07.551Z,20.90
2018-02-25T22:41:35.107Z,20.20
2018-02-25T22:44:02.883Z,20.00
2018-02-25T22:46:30.451Z,19.60
2018-02-25T22:48:58.307Z,19.90
2018-02-25T22:51:25.877Z,19.60
2018-02-25T22:53:53.555Z,18.30
2018-02-25T22:56:21.109Z,18.40
2018-02-25T22:58:48.665Z,18.40
2018-02-25T23:01:16.282Z,18.40
2018-02-25T23:03:44.605Z,18.40
2018-02-25T23:06:12.219Z,18.40
2018-02-25T23:08:40.590Z,18.40
2018-02-25T23:11:08.917Z,18.40
2018-02-25T23:13:36.514Z,18.40
2018-02-25T23:16:04.073Z,18.40
2018-02-25T23:18:31.685Z,18.40
2018-02-25T23:20:59.218Z,18.40
2018-02-25T23:23:26.792Z,18.50
2018-02-25T23:25:55.423Z,18.50
2018-02-25T23:28:24.523Z,18.50
2018-02-25T23:30:52.310Z,18.50
2018-02-25T23:33:20.827Z,18.60
2018-02-25T23:35:48.429Z,18.50
2018-02-25T23:38:16.751Z,18.50
2018-02-25T23:40:44.339Z,18.50
2018-02-25T23:43:11.927Z,18.60
2018-02-25T23:45:40.373Z,18.60
2018-02-25T23:48:07.973Z,18.50
2018-02-25T23:50:36.292Z,18.50
2018-02-25T23:53:03.897Z,18.60
2018-02-25T23:55:31.493Z,18.50
2018-02-25T23:57:59.842Z,18.50
